createdAt,value
2023-02-14T00:00:10.643Z,6.30
2023-02-14T00:02:38.613Z,6.30
2023-02-14T00:05:07.068Z,6.30
2023-02-14T00:07:36.308Z,6.30
2023-02-14T00:10:04.239Z,6.20
2023-02-14T00:12:32.103Z,6.30
2023-02-14T00:15:17.638Z,6.30
2023-02-14T00:17:45.497Z,6.20
2023-02-14T00:20:13.386Z,6.20
2023-02-14T00:22:42.598Z,6.30
2023-02-14T00:25:10.404Z,6.20
2023-02-14T00:27:38.585Z,6.30
2023-02-14T00:30:08.108Z,6.30
2023-02-14T00:32:38.140Z,6.30
2023-02-14T00:35:06.672Z,6.20
2023-02-14T00:37:34.732Z,6.30
2023-02-14T00:40:04.711Z,6.30
2023-02-14T00:42:33.365Z,6.20
2023-02-14T00:45:01.361Z,6.30
2023-02-14T00:47:29.452Z,6.20
2023-02-14T00:50:02.590Z,6.30
2023-02-14T00:52:30.689Z,6.30
2023-02-14T00:54:59.300Z,6.30
2023-02-14T00:57:28.543Z,6.30
2023-02-14T00:59:56.342Z,6.30
2023-02-14T01:02:24.289Z,6.30
2023-02-14T01:04:52.587Z,6.30
2023-02-14T01:07:24.111Z,6.30
2023-02-14T01:09:52.067Z,6.20
2023-02-14T01:12:19.994Z,6.20
2023-02-14T01:14:49.185Z,6.20
2023-02-14T01:17:20.280Z,6.20
2023-02-14T01:19:48.705Z,6.20
2023-02-14T01:22:16.507Z,6.30
2023-02-14T01:24:45.112Z,6.20
2023-02-14T01:27:12.965Z,6.20
2023-02-14T01:29:40.817Z,6.20
2023-02-14T01:32:10.093Z,6.10
2023-02-14T01:34:37.986Z,6.20
2023-02-14T01:37:06.765Z,6.20
2023-02-14T01:39:35.850Z,6.20
2023-02-14T01:42:05.149Z,6.20
2023-02-14T01:45:00.967Z,6.20
2023-02-14T01:47:33.264Z,6.20
2023-02-14T01:50:08.471Z,6.20
2023-02-14T01:52:41.292Z,6.20
2023-02-14T01:55:15.066Z,6.10
2023-02-14T01:57:48.319Z,6.00
2023-02-14T02:00:36.123Z,6.10
2023-02-14T02:03:06.421Z,6.10
2023-02-14T02:05:34.673Z,6.10
2023-02-14T02:08:03.249Z,6.10
2023-02-14T02:10:31.155Z,6.00
2023-02-14T02:13:05.918Z,6.00
2023-02-14T02:15:42.632Z,6.00
2023-02-14T02:18:18.842Z,6.00
2023-02-14T02:21:16.334Z,6.00
2023-02-14T02:24:09.537Z,6.00
2023-02-14T02:27:03.861Z,5.90
2023-02-14T02:30:12.305Z,5.90
2023-02-14T02:33:07.945Z,6.00
2023-02-14T02:35:48.146Z,6.00
2023-02-14T02:38:30.394Z,6.00
2023-02-14T02:41:05.168Z,5.90
2023-02-14T02:43:44.746Z,5.80
2023-02-14T02:46:39.627Z,5.80
2023-02-14T02:49:14.988Z,5.80
2023-02-14T02:52:16.165Z,5.80
2023-02-14T02:54:49.659Z,5.80
2023-02-14T02:57:24.068Z,5.80
2023-02-14T02:59:56.172Z,5.80
2023-02-14T03:02:26.486Z,5.80
2023-02-14T03:04:56.917Z,5.80
2023-02-14T03:07:39.190Z,5.80
2023-02-14T03:10:14.371Z,5.90
2023-02-14T03:13:10.415Z,5.90
2023-02-14T03:15:48.653Z,5.90
2023-02-14T03:18:48.802Z,5.80
2023-02-14T03:21:29.610Z,5.80
2023-02-14T03:24:06.209Z,5.80
2023-02-14T03:26:39.193Z,5.70
2023-02-14T03:29:14.714Z,5.70
2023-02-14T03:31:51.940Z,5.70
2023-02-14T03:34:28.157Z,5.80
2023-02-14T03:36:59.822Z,5.70
2023-02-14T03:39:33.329Z,5.70
2023-02-14T03:42:06.363Z,5.70
2023-02-14T03:44:37.077Z,5.80
2023-02-14T03:47:09.040Z,5.80
2023-02-14T03:49:40.772Z,5.80
2023-02-14T03:52:11.134Z,5.80
2023-02-14T03:54:40.687Z,5.80
2023-02-14T03:57:16.169Z,5.90
2023-02-14T03:59:44.355Z,5.90
2023-02-14T04:02:15.387Z,5.90
2023-02-14T04:04:47.182Z,5.80
2023-02-14T04:07:17.435Z,5.80
2023-02-14T04:09:47.425Z,5.70
2023-02-14T04:12:18.178Z,5.70
2023-02-14T04:14:48.042Z,5.80
2023-02-14T04:17:33.320Z,5.70
2023-02-14T04:20:01.209Z,5.70
2023-02-14T04:22:29.059Z,5.70
2023-02-14T04:24:58.244Z,5.70
2023-02-14T04:27:26.061Z,5.70
2023-02-14T04:29:54.011Z,5.60
2023-02-14T04:32:23.446Z,5.70
2023-02-14T04:34:51.652Z,5.70
2023-02-14T04:37:21.046Z,5.60
2023-02-14T04:39:49.221Z,5.70
2023-02-14T04:42:18.797Z,5.70
2023-02-14T04:44:46.706Z,5.60
2023-02-14T04:47:14.501Z,5.70
2023-02-14T04:49:42.514Z,5.60
2023-02-14T04:52:10.385Z,5.60
2023-02-14T04:54:38.214Z,5.60
2023-02-14T04:57:06.106Z,5.60
2023-02-14T04:59:35.332Z,5.60
2023-02-14T05:02:03.318Z,5.60
2023-02-14T05:04:31.245Z,5.60
2023-02-14T05:07:00.852Z,5.60
2023-02-14T05:09:29.329Z,5.60
2023-02-14T05:11:57.261Z,5.50
2023-02-14T05:14:25.097Z,5.60
2023-02-14T05:16:54.323Z,5.50
2023-02-14T05:19:22.320Z,5.50
2023-02-14T05:21:50.211Z,5.50
2023-02-14T05:24:18.290Z,5.50
2023-02-14T05:26:46.235Z,5.50
2023-02-14T05:29:14.043Z,5.50
2023-02-14T05:31:41.999Z,5.50
2023-02-14T05:34:11.275Z,5.50
2023-02-14T05:36:39.438Z,5.50
2023-02-14T05:39:07.264Z,5.40
2023-02-14T05:41:35.147Z,5.50
2023-02-14T05:44:02.979Z,5.50
2023-02-14T05:46:30.858Z,5.50
2023-02-14T05:48:58.729Z,5.50
2023-02-14T05:51:28.137Z,5.60
2023-02-14T05:53:57.740Z,5.50
2023-02-14T05:56:25.612Z,5.60
2023-02-14T05:58:53.394Z,5.50
2023-02-14T06:01:21.299Z,5.50
2023-02-14T06:03:49.106Z,5.50
2023-02-14T06:06:16.969Z,5.50
2023-02-14T06:08:46.189Z,5.60
2023-02-14T06:11:14.316Z,5.60
2023-02-14T06:13:42.331Z,5.60
2023-02-14T06:16:10.328Z,5.60
2023-02-14T06:18:38.224Z,5.60
2023-02-14T06:21:06.420Z,5.60
2023-02-14T06:23:34.544Z,5.60
2023-02-14T06:26:03.787Z,5.70
2023-02-14T06:28:31.669Z,5.60
2023-02-14T06:30:59.903Z,5.60
2023-02-14T06:33:27.976Z,5.50
2023-02-14T06:35:55.936Z,5.60
2023-02-14T06:38:23.817Z,5.60
2023-02-14T06:40:51.652Z,5.60
2023-02-14T06:43:20.836Z,5.60
2023-02-14T06:45:48.660Z,5.60
2023-02-14T06:48:16.599Z,5.50
2023-02-14T06:50:44.400Z,5.50
2023-02-14T06:53:12.545Z,5.60
2023-02-14T06:55:42.371Z,5.60
2023-02-14T06:58:11.586Z,5.60
2023-02-14T07:00:40.773Z,5.60
2023-02-14T07:03:09.335Z,5.60
2023-02-14T07:05:38.157Z,5.70
2023-02-14T07:08:07.115Z,5.70
2023-02-14T07:10:35.040Z,5.70
2023-02-14T07:13:02.986Z,5.80
2023-02-14T07:15:31.204Z,5.80
2023-02-14T07:18:00.573Z,5.80
2023-02-14T07:20:28.449Z,5.80
2023-02-14T07:22:56.409Z,5.90
2023-02-14T07:25:24.254Z,5.90
2023-02-14T07:27:52.156Z,5.90
2023-02-14T07:30:20.193Z,5.90
2023-02-14T07:32:48.112Z,5.90
2023-02-14T07:35:17.396Z,6.00
2023-02-14T07:37:45.347Z,6.00
2023-02-14T07:40:15.245Z,6.00
2023-02-14T07:42:44.083Z,6.10
2023-02-14T07:45:21.871Z,6.20
2023-02-14T07:47:50.290Z,6.20
2023-02-14T07:50:20.235Z,6.20
2023-02-14T07:52:48.252Z,6.30
2023-02-14T07:55:16.273Z,6.30
2023-02-14T07:57:44.174Z,6.30
2023-02-14T08:00:14.340Z,6.40
2023-02-14T08:02:42.225Z,6.40
2023-02-14T08:05:10.492Z,6.40
2023-02-14T08:07:39.769Z,6.50
2023-02-14T08:10:08.738Z,6.60
2023-02-14T08:12:54.192Z,6.60
2023-02-14T08:15:39.933Z,6.70
2023-02-14T08:18:07.791Z,6.70
2023-02-14T08:20:35.632Z,6.70
2023-02-14T08:23:04.990Z,6.80
2023-02-14T08:25:32.893Z,6.90
2023-02-14T08:28:02.703Z,6.90
2023-02-14T08:30:30.815Z,6.90
2023-02-14T08:32:58.688Z,7.00
2023-02-14T08:35:26.577Z,7.00
2023-02-14T08:37:54.417Z,7.00
2023-02-14T08:40:24.654Z,7.10
2023-02-14T08:42:52.919Z,7.10
2023-02-14T08:45:21.706Z,7.10
2023-02-14T08:47:49.604Z,7.20
2023-02-14T08:50:19.750Z,7.10
2023-02-14T08:52:47.670Z,7.20
2023-02-14T08:55:15.500Z,7.30
2023-02-14T08:57:44.827Z,7.30
2023-02-14T09:00:13.547Z,7.40
2023-02-14T09:02:41.446Z,7.40
2023-02-14T09:05:10.613Z,7.40
2023-02-14T09:07:39.320Z,7.50
2023-02-14T09:10:08.659Z,7.50
2023-02-14T09:12:39.309Z,7.50
2023-02-14T09:15:10.188Z,7.60
2023-02-14T09:17:38.622Z,7.70
2023-02-14T09:20:07.648Z,7.80
2023-02-14T09:22:35.624Z,7.90
2023-02-14T09:25:03.498Z,7.90
2023-02-14T09:27:32.215Z,8.00
2023-02-14T09:30:00.034Z,8.00
2023-02-14T09:32:29.774Z,8.00
2023-02-14T09:35:15.476Z,8.10
2023-02-14T09:37:43.373Z,8.10
2023-02-14T09:40:14.575Z,8.20
2023-02-14T09:42:52.468Z,8.20
2023-02-14T09:45:22.739Z,8.30
2023-02-14T09:47:56.368Z,8.30
2023-02-14T09:50:28.670Z,8.50
2023-02-14T09:53:01.547Z,8.60
2023-02-14T09:55:39.739Z,8.70
2023-02-14T09:58:14.235Z,8.90
2023-02-14T10:00:47.686Z,8.90
2023-02-14T10:03:43.837Z,8.80
2023-02-14T10:06:23.720Z,9.00
2023-02-14T10:09:03.576Z,9.10
2023-02-14T10:11:31.479Z,9.20
2023-02-14T10:14:03.866Z,9.20
2023-02-14T10:16:38.526Z,9.20
2023-02-14T10:19:14.897Z,9.20
2023-02-14T10:21:49.585Z,9.10
2023-02-14T10:24:21.908Z,9.20
2023-02-14T10:26:51.403Z,9.20
2023-02-14T10:29:22.112Z,9.20
2023-02-14T10:31:55.559Z,9.40
2023-02-14T10:34:31.936Z,9.50
2023-02-14T10:37:17.364Z,9.60
2023-02-14T10:40:01.856Z,9.60
2023-02-14T10:42:40.525Z,9.60
2023-02-14T10:45:18.746Z,9.70
2023-02-14T10:47:52.846Z,9.70
2023-02-14T10:50:27.793Z,9.80
2023-02-14T10:53:04.703Z,9.70
2023-02-14T10:55:43.189Z,9.70
2023-02-14T10:58:15.467Z,9.70
2023-02-14T11:00:52.996Z,9.80
2023-02-14T11:03:21.438Z,9.90
2023-02-14T11:05:51.058Z,10.00
2023-02-14T11:08:25.848Z,10.00
2023-02-14T11:10:54.790Z,10.00
2023-02-14T11:13:37.313Z,10.10
2023-02-14T11:16:08.755Z,10.20
2023-02-14T11:18:39.482Z,10.10
2023-02-14T11:21:11.576Z,10.10
2023-02-14T11:23:42.597Z,10.10
2023-02-14T11:26:16.377Z,10.10
2023-02-14T11:28:53.416Z,10.00
2023-02-14T11:31:33.420Z,10.10
2023-02-14T11:34:05.042Z,10.10
2023-02-14T11:36:42.609Z,10.10
2023-02-14T11:39:24.313Z,9.90
2023-02-14T11:41:53.845Z,9.90
2023-02-14T11:44:24.594Z,10.00
2023-02-14T11:46:54.029Z,10.10
2023-02-14T11:49:29.570Z,10.10
2023-02-14T11:52:00.863Z,10.20
2023-02-14T11:54:35.922Z,10.20
2023-02-14T11:57:07.384Z,10.20
2023-02-14T11:59:41.553Z,10.10
2023-02-14T12:02:22.979Z,10.10
2023-02-14T12:04:55.196Z,10.20
2023-02-14T12:07:27.999Z,10.30
2023-02-14T12:10:20.078Z,10.30
2023-02-14T12:12:53.007Z,10.30
2023-02-14T12:15:36.768Z,10.30
2023-02-14T12:18:49.292Z,10.30
2023-02-14T12:21:28.635Z,10.40
2023-02-14T12:24:06.298Z,10.40
2023-02-14T12:26:38.668Z,10.40
2023-02-14T12:29:14.874Z,10.40
2023-02-14T12:31:49.085Z,10.40
2023-02-14T12:34:18.811Z,10.40
2023-02-14T12:37:13.864Z,10.50
2023-02-14T12:39:57.688Z,10.50
2023-02-14T12:42:38.757Z,10.40
2023-02-14T12:45:18.308Z,10.40
2023-02-14T12:47:58.667Z,10.50
2023-02-14T12:50:38.222Z,10.50
2023-02-14T12:53:30.102Z,10.40
2023-02-14T12:56:07.446Z,10.50
2023-02-14T12:58:45.980Z,10.50
2023-02-14T13:01:39.055Z,10.60
2023-02-14T13:04:29.670Z,10.60
2023-02-14T13:07:02.525Z,10.60
2023-02-14T13:09:37.809Z,10.60
2023-02-14T13:12:22.693Z,10.50
2023-02-14T13:15:00.290Z,10.60
2023-02-14T13:17:34.769Z,10.60
2023-02-14T13:20:18.911Z,10.60
2023-02-14T13:22:47.929Z,10.60
2023-02-14T13:25:30.737Z,10.70
2023-02-14T13:28:01.410Z,10.70
2023-02-14T13:30:32.727Z,10.70
2023-02-14T13:33:07.409Z,10.80
2023-02-14T13:35:36.117Z,10.80
2023-02-14T13:38:07.545Z,10.80
2023-02-14T13:40:37.586Z,10.80
2023-02-14T13:43:06.793Z,10.80
2023-02-14T13:46:05.023Z,10.80
2023-02-14T13:48:33.557Z,10.80
2023-02-14T13:51:03.480Z,10.70
2023-02-14T13:53:40.675Z,10.80
2023-02-14T13:56:34.881Z,10.80
2023-02-14T13:59:07.320Z,10.80
2023-02-14T14:01:40.512Z,10.80
2023-02-14T14:04:36.979Z,10.80
2023-02-14T14:07:22.043Z,10.80
2023-02-14T14:10:02.447Z,10.80
2023-02-14T14:12:39.476Z,10.80
2023-02-14T14:15:17.131Z,10.80
2023-02-14T14:17:47.516Z,10.80
2023-02-14T14:20:43.113Z,10.70
2023-02-14T14:23:34.166Z,10.80
2023-02-14T14:26:03.291Z,10.70
2023-02-14T14:28:33.208Z,10.70
2023-02-14T14:31:01.341Z,10.70
2023-02-14T14:33:31.653Z,10.60
2023-02-14T14:36:06.090Z,10.70
2023-02-14T14:38:46.395Z,10.70
2023-02-14T14:41:14.579Z,10.60
2023-02-14T14:43:42.971Z,10.60
2023-02-14T14:46:14.392Z,10.60
2023-02-14T14:48:46.345Z,10.60
2023-02-14T14:51:23.998Z,10.60
2023-02-14T14:53:54.070Z,10.60
2023-02-14T14:56:24.050Z,10.60
2023-02-14T14:58:52.718Z,10.50
2023-02-14T15:01:34.313Z,10.60
2023-02-14T15:04:13.398Z,10.50
2023-02-14T15:06:43.057Z,10.50
2023-02-14T15:09:16.269Z,10.50
2023-02-14T15:12:03.933Z,10.50
2023-02-14T15:14:36.491Z,10.50
2023-02-14T15:17:06.653Z,10.50
2023-02-14T15:19:38.584Z,10.50
2023-02-14T15:22:18.355Z,10.50
2023-02-14T15:24:46.769Z,10.40
2023-02-14T15:27:17.853Z,10.40
2023-02-14T15:29:56.077Z,10.30
2023-02-14T15:32:25.809Z,10.30
2023-02-14T15:34:55.084Z,10.30
2023-02-14T15:37:25.456Z,10.20
2023-02-14T15:39:56.313Z,10.20
2023-02-14T15:42:29.182Z,10.10
2023-02-14T15:45:16.969Z,10.10
2023-02-14T15:47:47.350Z,10.00
2023-02-14T15:50:17.251Z,10.00
2023-02-14T15:52:47.414Z,9.90
2023-02-14T15:55:19.513Z,9.90
2023-02-14T15:57:54.491Z,9.80
2023-02-14T16:00:24.481Z,9.80
2023-02-14T16:02:55.984Z,9.70
2023-02-14T16:05:27.084Z,9.70
2023-02-14T16:08:03.437Z,9.60
2023-02-14T16:10:33.117Z,9.50
2023-02-14T16:13:03.084Z,9.50
2023-02-14T16:15:32.728Z,9.40
2023-02-14T16:18:06.951Z,9.30
2023-02-14T16:20:46.787Z,9.20
2023-02-14T16:23:18.321Z,9.10
2023-02-14T16:25:46.893Z,9.10
2023-02-14T16:28:15.339Z,9.00
2023-02-14T16:30:45.019Z,8.90
2023-02-14T16:33:18.458Z,8.90
2023-02-14T16:35:46.871Z,8.80
2023-02-14T16:38:18.633Z,8.70
2023-02-14T16:40:48.576Z,8.60
2023-02-14T16:43:18.502Z,8.50
2023-02-14T16:45:47.186Z,8.40
2023-02-14T16:48:16.312Z,8.30
2023-02-14T16:50:45.765Z,8.20
2023-02-14T16:53:23.382Z,8.20
2023-02-14T16:55:53.119Z,8.10
2023-02-14T16:58:22.296Z,8.00
2023-02-14T17:00:50.359Z,7.90
2023-02-14T17:03:18.458Z,7.90
2023-02-14T17:05:47.398Z,7.80
2023-02-14T17:08:16.275Z,7.80
2023-02-14T17:10:48.373Z,7.70
2023-02-14T17:13:19.938Z,7.60
2023-02-14T17:15:48.377Z,7.50
2023-02-14T17:18:18.586Z,7.50
2023-02-14T17:20:46.769Z,7.40
2023-02-14T17:23:15.270Z,7.30
2023-02-14T17:25:45.956Z,7.20
2023-02-14T17:28:13.731Z,7.10
2023-02-14T17:30:41.988Z,7.00
2023-02-14T17:33:09.840Z,7.00
2023-02-14T17:35:38.786Z,6.90
2023-02-14T17:38:06.641Z,6.80
2023-02-14T17:40:35.066Z,6.80
2023-02-14T17:43:04.452Z,6.80
2023-02-14T17:45:32.320Z,6.70
2023-02-14T17:48:01.594Z,6.60
2023-02-14T17:50:29.631Z,6.50
2023-02-14T17:52:58.318Z,6.50
2023-02-14T17:55:26.184Z,6.40
2023-02-14T17:57:54.128Z,6.40
2023-02-14T18:00:24.361Z,6.40
2023-02-14T18:02:52.370Z,6.50
2023-02-14T18:05:20.195Z,6.60
2023-02-14T18:07:48.287Z,6.70
2023-02-14T18:10:16.083Z,6.80
2023-02-14T18:12:43.958Z,6.80
2023-02-14T18:15:11.791Z,6.80
2023-02-14T18:17:41.345Z,6.80
2023-02-14T18:20:10.068Z,6.80
2023-02-14T18:22:37.910Z,6.80
2023-02-14T18:25:07.468Z,6.90
2023-02-14T18:27:35.366Z,6.90
2023-02-14T18:30:03.265Z,6.90
2023-02-14T18:32:31.175Z,6.90
2023-02-14T18:35:00.364Z,6.90
2023-02-14T18:37:28.277Z,6.80
2023-02-14T18:39:56.084Z,6.80
2023-02-14T18:42:23.908Z,6.80
2023-02-14T18:44:51.752Z,6.80
2023-02-14T18:47:20.996Z,6.80
2023-02-14T18:49:48.816Z,6.80
2023-02-14T18:52:18.093Z,6.90
2023-02-14T18:54:45.916Z,6.90
2023-02-14T18:57:13.751Z,6.90
2023-02-14T18:59:41.746Z,6.80
2023-02-14T19:02:10.122Z,6.80
2023-02-14T19:04:37.937Z,6.80
2023-02-14T19:07:06.022Z,6.80
2023-02-14T19:09:39.393Z,6.70
2023-02-14T19:12:07.810Z,6.70
2023-02-14T19:14:36.027Z,6.70
2023-02-14T19:17:06.013Z,6.60
2023-02-14T19:19:34.578Z,6.60
2023-02-14T19:22:02.459Z,6.60
2023-02-14T19:24:30.401Z,6.50
2023-02-14T19:26:59.664Z,6.50
2023-02-14T19:29:27.751Z,6.40
2023-02-14T19:31:56.159Z,6.40
2023-02-14T19:34:28.944Z,6.40
2023-02-14T19:36:59.760Z,6.40
2023-02-14T19:39:30.348Z,6.40
2023-02-14T19:42:00.956Z,6.40
2023-02-14T19:44:30.921Z,6.40
2023-02-14T19:47:00.058Z,6.30
2023-02-14T19:49:29.144Z,6.30
2023-02-14T19:51:57.847Z,6.30
2023-02-14T19:54:25.800Z,6.30
2023-02-14T19:56:55.972Z,6.20
2023-02-14T19:59:25.310Z,6.20
2023-02-14T20:01:54.512Z,6.10
2023-02-14T20:04:23.834Z,6.10
2023-02-14T20:06:52.522Z,6.00
2023-02-14T20:09:21.744Z,6.00
2023-02-14T20:11:51.182Z,6.00
2023-02-14T20:14:20.488Z,6.00
2023-02-14T20:16:50.111Z,5.90
2023-02-14T20:19:20.375Z,5.90
2023-02-14T20:21:50.432Z,5.90
2023-02-14T20:24:22.516Z,5.90
2023-02-14T20:26:51.782Z,5.80
2023-02-14T20:29:21.013Z,5.80
2023-02-14T20:31:52.311Z,5.80
2023-02-14T20:34:20.857Z,5.70
2023-02-14T20:36:52.950Z,5.70
2023-02-14T20:39:22.233Z,5.70
2023-02-14T20:41:51.172Z,5.70
2023-02-14T20:44:21.768Z,5.60
2023-02-14T20:46:52.525Z,5.60
2023-02-14T20:49:21.416Z,5.60
2023-02-14T20:51:50.624Z,5.60
2023-02-14T20:54:18.991Z,5.50
2023-02-14T20:56:47.028Z,5.50
2023-02-14T20:59:15.439Z,5.50
2023-02-14T21:01:43.468Z,5.50
2023-02-14T21:04:13.999Z,5.50
2023-02-14T21:06:42.044Z,5.50
2023-02-14T21:09:10.039Z,5.40
2023-02-14T21:11:37.946Z,5.30
2023-02-14T21:14:05.969Z,5.30
2023-02-14T21:16:33.779Z,5.30
2023-02-14T21:19:01.714Z,5.20
2023-02-14T21:21:34.647Z,5.30
2023-02-14T21:24:04.409Z,5.30
2023-02-14T21:26:32.260Z,5.30
2023-02-14T21:29:00.109Z,5.30
2023-02-14T21:31:28.217Z,5.30
2023-02-14T21:33:58.031Z,5.30
2023-02-14T21:36:28.606Z,5.30
2023-02-14T21:38:59.319Z,5.20
2023-02-14T21:41:30.727Z,5.20
2023-02-14T21:44:00.745Z,5.20
2023-02-14T21:46:30.828Z,5.10
2023-02-14T21:49:17.746Z,5.10
2023-02-14T21:51:46.127Z,5.10
2023-02-14T21:54:16.264Z,5.10
2023-02-14T21:56:45.282Z,5.10
2023-02-14T21:59:13.461Z,5.10
2023-02-14T22:01:43.041Z,5.00
2023-02-14T22:04:12.649Z,5.00
2023-02-14T22:06:42.469Z,5.00
2023-02-14T22:09:17.340Z,5.00
2023-02-14T22:11:47.399Z,5.00
2023-02-14T22:14:15.778Z,4.90
2023-02-14T22:16:43.650Z,4.90
2023-02-14T22:19:14.714Z,4.80
2023-02-14T22:21:44.651Z,4.70
2023-02-14T22:24:13.498Z,4.70
2023-02-14T22:26:42.946Z,4.70
2023-02-14T22:29:13.024Z,4.60
2023-02-14T22:31:42.611Z,4.60
2023-02-14T22:34:12.635Z,4.60
2023-02-14T22:36:40.711Z,4.50
2023-02-14T22:39:09.310Z,4.40
2023-02-14T22:41:37.837Z,4.50
2023-02-14T22:44:07.406Z,4.50
2023-02-14T22:46:37.674Z,4.40
2023-02-14T22:49:07.230Z,4.40
2023-02-14T22:51:37.420Z,4.40
2023-02-14T22:54:07.454Z,4.30
2023-02-14T22:56:38.681Z,4.30
2023-02-14T22:59:09.836Z,4.30
2023-02-14T23:01:37.866Z,4.20
2023-02-14T23:04:06.512Z,4.20
2023-02-14T23:06:35.966Z,4.20
2023-02-14T23:09:04.645Z,4.20
2023-02-14T23:11:34.811Z,4.20
2023-02-14T23:14:20.818Z,4.10
2023-02-14T23:17:07.708Z,4.10
2023-02-14T23:19:54.701Z,4.10
2023-02-14T23:22:24.213Z,4.10
2023-02-14T23:24:53.684Z,4.00
2023-02-14T23:27:23.265Z,4.00
2023-02-14T23:29:51.223Z,4.00
2023-02-14T23:32:20.370Z,3.90
2023-02-14T23:34:48.609Z,4.00
2023-02-14T23:37:16.499Z,4.00
2023-02-14T23:39:44.337Z,4.00
2023-02-14T23:42:14.550Z,4.00
2023-02-14T23:44:43.967Z,4.00
2023-02-14T23:47:12.897Z,4.00
2023-02-14T23:49:42.873Z,4.00
2023-02-14T23:52:13.135Z,4.00
2023-02-14T23:54:41.005Z,4.00
2023-02-14T23:57:09.368Z,3.90
2023-02-14T23:59:37.233Z,3.80
